createdAt,value
2018-02-04T00:01:55.885Z,3.60
2018-02-04T00:04:23.416Z,3.60
2018-02-04T00:06:51.085Z,3.60
2018-02-04T00:09:18.612Z,3.60
2018-02-04T00:11:46.908Z,3.60
2018-02-04T00:14:14.507Z,3.60
2018-02-04T00:16:42.068Z,3.60
2018-02-04T00:19:09.664Z,3.60
2018-02-04T00:21:37.994Z,3.60
2018-02-04T00:24:05.618Z,3.60
2018-02-04T00:26:33.220Z,3.70
2018-02-04T00:29:00.775Z,3.70
2018-02-04T00:31:28.939Z,3.70
2018-02-04T00:33:56.531Z,3.80
2018-02-04T00:36:24.458Z,3.80
2018-02-04T00:38:52.047Z,3.80
2018-02-04T00:41:19.604Z,3.70
2018-02-04T00:43:47.206Z,3.80
2018-02-04T00:46:14.776Z,3.80
2018-02-04T00:48:42.586Z,3.80
2018-02-04T00:51:10.133Z,3.80
2018-02-04T00:53:37.689Z,3.80
2018-02-04T00:56:05.312Z,3.80
2018-02-04T00:58:32.864Z,3.80
2018-02-04T01:01:01.226Z,3.80
2018-02-04T01:03:30.291Z,3.80
2018-02-04T01:05:57.905Z,3.80
2018-02-04T01:08:26.222Z,3.80
2018-02-04T01:10:53.783Z,3.80
2018-02-04T01:13:21.353Z,3.80
2018-02-04T01:15:48.918Z,3.80
2018-02-04T01:18:16.565Z,3.80
2018-02-04T01:20:44.113Z,3.90
2018-02-04T01:23:11.696Z,3.90
2018-02-04T01:25:39.263Z,3.90
2018-02-04T01:28:06.838Z,3.90
2018-02-04T01:30:34.344Z,4.00
2018-02-04T01:33:01.876Z,4.00
2018-02-04T01:35:29.476Z,4.00
2018-02-04T01:37:57.283Z,4.00
2018-02-04T01:40:25.141Z,4.00
2018-02-04T01:42:52.683Z,4.00
2018-02-04T01:45:20.291Z,4.00
2018-02-04T01:48:00.482Z,4.00
2018-02-04T01:50:28.268Z,4.00
2018-02-04T01:52:55.897Z,4.00
2018-02-04T01:55:23.457Z,4.00
2018-02-04T01:57:51.052Z,4.00
2018-02-04T02:00:18.617Z,4.00
2018-02-04T02:02:46.221Z,4.00
2018-02-04T02:05:13.778Z,4.00
2018-02-04T02:07:41.385Z,4.00
2018-02-04T02:10:08.942Z,4.00
2018-02-04T02:12:36.492Z,4.00
2018-02-04T02:15:04.093Z,3.90
2018-02-04T02:17:32.412Z,4.00
2018-02-04T02:20:00.013Z,3.90
2018-02-04T02:22:27.563Z,3.90
2018-02-04T02:24:55.167Z,3.90
2018-02-04T02:27:23.500Z,3.80
2018-02-04T02:29:51.067Z,3.80
2018-02-04T02:32:18.669Z,3.80
2018-02-04T02:34:46.232Z,3.70
2018-02-04T02:37:13.847Z,3.70
2018-02-04T02:39:41.395Z,3.70
2018-02-04T02:42:09.001Z,3.70
2018-02-04T02:44:37.330Z,3.70
2018-02-04T02:47:04.935Z,3.70
2018-02-04T02:49:33.253Z,3.80
2018-02-04T02:52:01.010Z,3.70
2018-02-04T02:54:28.771Z,3.80
2018-02-04T02:56:56.345Z,3.80
2018-02-04T02:59:23.956Z,3.80
2018-02-04T03:01:51.526Z,3.80
2018-02-04T03:04:19.263Z,3.80
2018-02-04T03:06:46.816Z,3.80
2018-02-04T03:09:14.376Z,3.80
2018-02-04T03:11:41.981Z,3.80
2018-02-04T03:14:09.549Z,3.80
2018-02-04T03:16:37.146Z,3.80
2018-02-04T03:19:04.691Z,3.80
2018-02-04T03:21:32.540Z,3.80
2018-02-04T03:24:00.083Z,3.80
2018-02-04T03:26:27.640Z,3.80
2018-02-04T03:28:55.364Z,3.80
2018-02-04T03:31:22.910Z,3.80
2018-02-04T03:33:50.512Z,3.80
2018-02-04T03:36:18.799Z,3.80
2018-02-04T03:38:46.524Z,3.80
2018-02-04T03:41:14.062Z,3.80
2018-02-04T03:43:41.792Z,3.80
2018-02-04T03:46:09.396Z,3.80
2018-02-04T03:48:36.945Z,3.80
2018-02-04T03:51:04.701Z,3.80
2018-02-04T03:53:32.236Z,3.80
2018-02-04T03:55:59.812Z,3.80
2018-02-04T03:58:27.346Z,3.80
2018-02-04T04:00:54.896Z,3.80
2018-02-04T04:03:22.482Z,3.80
2018-02-04T04:05:50.240Z,3.80
2018-02-04T04:08:18.723Z,3.80
2018-02-04T04:10:46.383Z,3.80
2018-02-04T04:13:13.952Z,3.70
2018-02-04T04:15:41.549Z,3.70
2018-02-04T04:18:09.127Z,3.70
2018-02-04T04:20:36.680Z,3.70
2018-02-04T04:23:04.225Z,3.70
2018-02-04T04:25:31.816Z,3.70
2018-02-04T04:28:00.145Z,3.70
2018-02-04T04:30:27.747Z,3.70
2018-02-04T04:32:56.070Z,3.70
2018-02-04T04:35:23.676Z,3.70
2018-02-04T04:37:51.995Z,3.70
2018-02-04T04:40:19.606Z,3.70
2018-02-04T04:42:47.166Z,3.70
2018-02-04T04:45:14.742Z,3.70
2018-02-04T04:47:42.368Z,3.70
2018-02-04T04:50:09.933Z,3.70
2018-02-04T04:52:39.059Z,3.70
2018-02-04T04:55:06.615Z,3.70
2018-02-04T04:57:34.991Z,3.70
2018-02-04T05:00:02.552Z,3.70
2018-02-04T05:02:30.969Z,3.70
2018-02-04T05:04:58.578Z,3.70
2018-02-04T05:07:26.292Z,3.70
2018-02-04T05:09:53.863Z,3.70
2018-02-04T05:12:21.469Z,3.70
2018-02-04T05:14:49.056Z,3.80
2018-02-04T05:17:16.983Z,3.80
2018-02-04T05:19:44.621Z,3.80
2018-02-04T05:22:12.432Z,3.80
2018-02-04T05:24:39.992Z,3.80
2018-02-04T05:27:08.375Z,3.80
2018-02-04T05:29:35.962Z,3.80
2018-02-04T05:32:03.543Z,3.80
2018-02-04T05:34:31.091Z,3.80
2018-02-04T05:36:58.720Z,3.80
2018-02-04T05:39:27.032Z,3.80
2018-02-04T05:41:54.591Z,3.80
2018-02-04T05:44:22.171Z,3.80
2018-02-04T05:46:49.902Z,3.70
2018-02-04T05:49:17.527Z,3.70
2018-02-04T05:51:45.082Z,3.70
2018-02-04T05:54:13.467Z,3.70
2018-02-04T05:56:41.033Z,3.70
2018-02-04T05:59:09.410Z,3.70
2018-02-04T06:01:37.036Z,3.70
2018-02-04T06:04:04.590Z,3.70
2018-02-04T06:06:32.191Z,3.70
2018-02-04T06:08:59.744Z,3.70
2018-02-04T06:11:28.086Z,3.70
2018-02-04T06:13:55.675Z,3.70
2018-02-04T06:16:24.044Z,3.70
2018-02-04T06:18:51.599Z,3.70
2018-02-04T06:21:19.164Z,3.70
2018-02-04T06:23:46.791Z,3.70
2018-02-04T06:26:14.361Z,3.70
2018-02-04T06:28:41.974Z,3.80
2018-02-04T06:31:09.528Z,3.70
2018-02-04T06:33:37.899Z,3.80
2018-02-04T06:36:05.455Z,3.70
2018-02-04T06:38:33.831Z,3.80
2018-02-04T06:41:02.429Z,3.80
2018-02-04T06:43:30.755Z,3.70
2018-02-04T06:45:58.347Z,3.70
2018-02-04T06:48:26.693Z,3.80
2018-02-04T06:50:54.290Z,3.70
2018-02-04T06:53:22.707Z,3.80
2018-02-04T06:55:50.323Z,3.70
2018-02-04T06:58:17.912Z,3.80
2018-02-04T07:00:45.468Z,3.80
2018-02-04T07:03:13.067Z,3.80
2018-02-04T07:05:40.637Z,3.80
2018-02-04T07:08:08.242Z,3.80
2018-02-04T07:10:35.797Z,3.80
2018-02-04T07:13:03.404Z,3.80
2018-02-04T07:15:30.959Z,3.80
2018-02-04T07:17:58.916Z,3.80
2018-02-04T07:20:26.494Z,3.80
2018-02-04T07:22:54.063Z,3.80
2018-02-04T07:25:21.657Z,3.80
2018-02-04T07:27:49.225Z,3.80
2018-02-04T07:30:17.587Z,3.80
2018-02-04T07:32:45.149Z,3.80
2018-02-04T07:35:13.507Z,3.80
2018-02-04T07:37:41.063Z,3.80
2018-02-04T07:40:08.686Z,3.80
2018-02-04T07:42:36.352Z,3.80
2018-02-04T07:45:03.921Z,3.80
2018-02-04T07:47:31.527Z,3.80
2018-02-04T07:49:59.869Z,3.80
2018-02-04T07:52:27.467Z,3.80
2018-02-04T07:54:55.785Z,3.90
2018-02-04T07:57:23.582Z,3.90
2018-02-04T07:59:51.135Z,3.90
2018-02-04T08:02:18.767Z,3.90
2018-02-04T08:04:47.133Z,3.90
2018-02-04T08:07:14.720Z,3.90
2018-02-04T08:09:42.311Z,3.90
2018-02-04T08:12:09.864Z,3.90
2018-02-04T08:14:37.450Z,3.90
2018-02-04T08:17:05.783Z,3.80
2018-02-04T08:19:33.408Z,3.80
2018-02-04T08:22:00.975Z,3.70
2018-02-04T08:24:28.674Z,3.70
2018-02-04T08:26:56.305Z,3.70
2018-02-04T08:29:23.856Z,3.60
2018-02-04T08:31:51.477Z,3.50
2018-02-04T08:34:19.043Z,3.50
2018-02-04T08:36:46.665Z,3.40
2018-02-04T08:39:14.232Z,3.40
2018-02-04T08:41:41.784Z,3.30
2018-02-04T08:44:09.397Z,3.30
2018-02-04T08:46:37.732Z,3.30
2018-02-04T08:49:05.327Z,3.20
2018-02-04T08:51:33.664Z,3.20
2018-02-04T08:54:01.281Z,3.20
2018-02-04T08:56:29.597Z,3.20
2018-02-04T08:58:57.140Z,3.20
2018-02-04T09:01:24.737Z,3.10
2018-02-04T09:03:52.335Z,3.10
2018-02-04T09:06:20.702Z,3.10
2018-02-04T09:08:48.250Z,3.10
2018-02-04T09:11:15.843Z,3.10
2018-02-04T09:13:43.449Z,3.00
2018-02-04T09:16:11.387Z,3.00
2018-02-04T09:18:38.979Z,3.00
2018-02-04T09:21:06.578Z,3.10
2018-02-04T09:23:34.992Z,3.10
2018-02-04T09:26:02.530Z,3.10
2018-02-04T09:28:30.131Z,3.10
2018-02-04T09:30:57.715Z,3.10
2018-02-04T09:33:25.307Z,3.10
2018-02-04T09:35:52.894Z,3.20
2018-02-04T09:38:20.463Z,3.20
2018-02-04T09:40:48.073Z,3.20
2018-02-04T09:43:16.392Z,3.30
2018-02-04T09:45:44.006Z,3.30
2018-02-04T09:48:12.647Z,3.40
2018-02-04T09:50:40.248Z,3.30
2018-02-04T09:53:07.809Z,3.40
2018-02-04T09:55:36.227Z,3.40
2018-02-04T09:58:03.825Z,3.40
2018-02-04T10:00:31.368Z,3.40
2018-02-04T10:02:59.035Z,3.40
2018-02-04T10:05:26.597Z,3.40
2018-02-04T10:07:54.226Z,3.40
2018-02-04T10:10:21.770Z,3.50
2018-02-04T10:12:49.331Z,3.50
2018-02-04T10:15:16.928Z,3.50
2018-02-04T10:17:44.772Z,3.50
2018-02-04T10:20:12.372Z,3.50
2018-02-04T10:22:39.935Z,3.60
2018-02-04T10:25:07.490Z,3.60
2018-02-04T10:27:35.087Z,3.60
2018-02-04T10:30:02.646Z,3.60
2018-02-04T10:32:30.232Z,3.60
2018-02-04T10:34:57.797Z,3.60
2018-02-04T10:37:25.466Z,3.60
2018-02-04T10:39:53.033Z,3.60
2018-02-04T10:42:20.635Z,3.60
2018-02-04T10:44:49.195Z,3.70
2018-02-04T10:47:17.526Z,3.70
2018-02-04T10:49:45.146Z,3.70
2018-02-04T10:52:12.701Z,3.80
2018-02-04T10:54:40.314Z,3.80
2018-02-04T10:57:07.981Z,3.80
2018-02-04T10:59:35.608Z,3.80
2018-02-04T11:02:03.316Z,3.80
2018-02-04T11:04:30.937Z,3.90
2018-02-04T11:06:58.503Z,3.90
2018-02-04T11:09:27.044Z,3.90
2018-02-04T11:11:54.851Z,3.90
2018-02-04T11:14:22.423Z,3.90
2018-02-04T11:16:50.037Z,4.00
2018-02-04T11:19:18.362Z,4.00
2018-02-04T11:21:46.085Z,4.00
2018-02-04T11:24:14.430Z,4.00
2018-02-04T11:26:41.970Z,4.00
2018-02-04T11:29:09.564Z,4.00
2018-02-04T11:31:37.171Z,4.10
2018-02-04T11:34:04.757Z,4.20
2018-02-04T11:36:32.311Z,4.20
2018-02-04T11:38:59.916Z,4.30
2018-02-04T11:41:27.575Z,4.40
2018-02-04T11:43:55.134Z,4.50
2018-02-04T11:46:22.742Z,4.50
2018-02-04T11:48:50.315Z,4.60
2018-02-04T11:51:17.867Z,4.70
2018-02-04T11:53:45.481Z,4.80
2018-02-04T11:56:13.827Z,5.00
2018-02-04T11:58:41.566Z,5.00
2018-02-04T12:01:09.145Z,5.00
2018-02-04T12:03:36.794Z,4.80
2018-02-04T12:06:04.461Z,4.70
2018-02-04T12:08:32.018Z,4.70
2018-02-04T12:10:59.648Z,4.60
2018-02-04T12:13:27.221Z,4.60
2018-02-04T12:15:54.835Z,4.60
2018-02-04T12:18:22.388Z,4.60
2018-02-04T12:20:50.011Z,4.70
2018-02-04T12:23:17.615Z,4.80
2018-02-04T12:25:45.176Z,4.90
2018-02-04T12:28:12.801Z,5.00
2018-02-04T12:30:40.380Z,5.00
2018-02-04T12:33:08.004Z,5.00
2018-02-04T12:35:36.423Z,5.00
2018-02-04T12:38:04.100Z,4.90
2018-02-04T12:40:31.630Z,5.00
2018-02-04T12:42:59.203Z,5.00
2018-02-04T12:45:26.816Z,4.90
2018-02-04T12:47:54.384Z,4.90
2018-02-04T12:50:22.078Z,4.90
2018-02-04T12:52:49.663Z,4.90
2018-02-04T12:55:17.318Z,4.90
2018-02-04T12:57:44.892Z,4.90
2018-02-04T13:00:13.225Z,4.90
2018-02-04T13:02:40.880Z,4.90
2018-02-04T13:05:08.474Z,4.80
2018-02-04T13:07:36.093Z,4.80
2018-02-04T13:10:03.687Z,4.80
2018-02-04T13:12:31.332Z,4.80
2018-02-04T13:14:58.910Z,4.70
2018-02-04T13:17:26.541Z,4.70
2018-02-04T13:19:54.101Z,4.70
2018-02-04T13:22:21.860Z,4.60
2018-02-04T13:24:49.471Z,4.60
2018-02-04T13:27:17.087Z,4.60
2018-02-04T13:29:44.691Z,4.50
2018-02-04T13:32:12.272Z,4.60
2018-02-04T13:34:39.833Z,4.50
2018-02-04T13:37:07.441Z,4.50
2018-02-04T13:39:34.987Z,4.50
2018-02-04T13:42:02.596Z,4.50
2018-02-04T13:44:30.182Z,4.40
2018-02-04T13:46:57.803Z,4.40
2018-02-04T13:49:25.392Z,4.40
2018-02-04T13:51:53.768Z,4.40
2018-02-04T13:54:21.348Z,4.40
2018-02-04T13:56:48.931Z,4.40
2018-02-04T13:59:16.556Z,4.40
2018-02-04T14:01:44.890Z,4.40
2018-02-04T14:04:12.526Z,4.40
2018-02-04T14:06:40.092Z,4.40
2018-02-04T14:09:07.723Z,4.40
2018-02-04T14:11:35.287Z,4.40
2018-02-04T14:14:02.837Z,4.40
2018-02-04T14:16:30.451Z,4.40
2018-02-04T14:18:58.016Z,4.30
2018-02-04T14:21:25.682Z,4.30
2018-02-04T14:23:53.299Z,4.40
2018-02-04T14:26:20.898Z,4.40
2018-02-04T14:28:48.475Z,4.40
2018-02-04T14:31:16.105Z,4.40
2018-02-04T14:33:43.815Z,4.40
2018-02-04T14:36:11.379Z,4.40
2018-02-04T14:38:39.767Z,4.30
2018-02-04T14:41:07.372Z,4.30
2018-02-04T14:43:35.008Z,4.30
2018-02-04T14:46:02.578Z,4.30
2018-02-04T14:48:30.187Z,4.30
2018-02-04T14:50:57.763Z,4.30
2018-02-04T14:53:25.425Z,4.30
2018-02-04T14:55:52.974Z,4.30
2018-02-04T14:58:21.617Z,4.30
2018-02-04T15:00:49.189Z,4.20
2018-02-04T15:03:16.751Z,4.20
2018-02-04T15:05:44.435Z,4.20
2018-02-04T15:08:11.960Z,4.20
2018-02-04T15:10:39.558Z,4.20
2018-02-04T15:13:07.253Z,4.10
2018-02-04T15:15:34.791Z,4.10
2018-02-04T15:18:02.394Z,4.10
2018-02-04T15:20:30.076Z,4.00
2018-02-04T15:22:57.653Z,4.00
2018-02-04T15:25:25.207Z,3.90
2018-02-04T15:27:52.775Z,3.90
2018-02-04T15:30:20.329Z,3.80
2018-02-04T15:32:48.755Z,3.60
2018-02-04T15:35:16.351Z,3.60
2018-02-04T15:37:45.408Z,3.50
2018-02-04T15:40:13.020Z,3.50
2018-02-04T15:42:40.564Z,3.40
2018-02-04T15:45:08.212Z,3.30
2018-02-04T15:47:35.828Z,3.30
2018-02-04T15:50:03.442Z,3.30
2018-02-04T15:52:32.790Z,3.20
2018-02-04T15:55:00.324Z,3.20
2018-02-04T15:57:27.874Z,3.20
2018-02-04T15:59:55.472Z,3.20
2018-02-04T16:02:23.037Z,3.20
2018-02-04T16:04:50.701Z,3.20
2018-02-04T16:07:18.265Z,3.20
2018-02-04T16:09:45.863Z,3.20
2018-02-04T16:12:13.585Z,3.20
2018-02-04T16:14:41.165Z,3.20
2018-02-04T16:17:08.704Z,3.20
2018-02-04T16:19:37.096Z,3.20
2018-02-04T16:22:04.644Z,3.10
2018-02-04T16:24:32.208Z,3.10
2018-02-04T16:26:59.803Z,3.00
2018-02-04T16:29:27.349Z,2.90
2018-02-04T16:31:54.933Z,2.80
2018-02-04T16:34:22.479Z,2.70
2018-02-04T16:36:50.100Z,2.60
2018-02-04T16:39:17.649Z,2.50
2018-02-04T16:41:45.328Z,2.50
2018-02-04T16:44:12.925Z,2.40
2018-02-04T16:46:41.313Z,2.40
2018-02-04T16:49:08.888Z,2.30
2018-02-04T16:51:36.531Z,2.20
2018-02-04T16:54:05.581Z,2.10
2018-02-04T16:56:33.196Z,2.10
2018-02-04T16:59:00.800Z,2.10
2018-02-04T17:01:28.363Z,2.00
2018-02-04T17:03:55.909Z,2.10
2018-02-04T17:06:23.501Z,2.00
2018-02-04T17:08:51.041Z,2.00
2018-02-04T17:11:18.709Z,2.00
2018-02-04T17:13:47.094Z,2.00
2018-02-04T17:16:14.623Z,2.00
2018-02-04T17:18:42.302Z,1.90
2018-02-04T17:21:09.838Z,1.90
2018-02-04T17:23:38.181Z,1.80
2018-02-04T17:26:06.495Z,1.80
2018-02-04T17:28:34.044Z,1.80
2018-02-04T17:31:02.464Z,1.70
2018-02-04T17:33:30.020Z,1.70
2018-02-04T17:35:57.613Z,1.70
2018-02-04T17:38:25.169Z,1.60
2018-02-04T17:40:52.721Z,1.50
2018-02-04T17:43:20.311Z,1.50
2018-02-04T17:45:47.866Z,1.50
2018-02-04T17:48:15.428Z,1.50
2018-02-04T17:50:42.977Z,1.40
2018-02-04T17:53:10.876Z,1.40
2018-02-04T17:55:38.523Z,1.40
2018-02-04T17:58:06.831Z,1.30
2018-02-04T18:00:34.407Z,1.30
2018-02-04T18:03:01.953Z,1.30
2018-02-04T18:05:29.995Z,1.30
2018-02-04T18:07:57.585Z,1.30
2018-02-04T18:10:25.247Z,1.20
2018-02-04T18:12:52.855Z,1.20
2018-02-04T18:15:21.894Z,1.20
2018-02-04T18:17:49.502Z,1.20
2018-02-04T18:20:17.825Z,1.10
2018-02-04T18:22:45.871Z,1.10
2018-02-04T18:25:14.202Z,1.10
2018-02-04T18:27:41.770Z,1.10
2018-02-04T18:30:09.358Z,1.10
2018-02-04T18:32:36.943Z,1.10
2018-02-04T18:35:05.281Z,1.00
2018-02-04T18:37:32.858Z,1.00
2018-02-04T18:40:00.444Z,1.00
2018-02-04T18:42:28.033Z,1.00
2018-02-04T18:44:55.586Z,1.00
2018-02-04T18:47:23.172Z,0.90
2018-02-04T18:49:50.752Z,0.90
2018-02-04T18:52:19.126Z,0.70
2018-02-04T18:54:46.669Z,0.70
2018-02-04T18:57:14.262Z,0.60
2018-02-04T18:59:41.853Z,0.60
2018-02-04T19:02:09.388Z,0.60
2018-02-04T19:04:36.971Z,0.50
2018-02-04T19:07:04.625Z,0.50
2018-02-04T19:09:32.217Z,0.50
2018-02-04T19:11:59.768Z,0.40
2018-02-04T19:14:27.352Z,0.40
2018-02-04T19:16:54.901Z,0.50
2018-02-04T19:19:22.447Z,0.40
2018-02-04T19:21:50.018Z,0.40
2018-02-04T19:24:17.528Z,0.40
2018-02-04T19:26:45.475Z,0.40
2018-02-04T19:29:13.007Z,0.40
2018-02-04T19:31:40.590Z,0.40
2018-02-04T19:34:08.429Z,0.40
2018-02-04T19:36:35.960Z,0.40
2018-02-04T19:39:03.549Z,0.40
2018-02-04T19:41:31.156Z,0.40
2018-02-04T19:43:58.707Z,0.40
2018-02-04T19:46:26.281Z,0.40
2018-02-04T19:48:53.835Z,0.40
2018-02-04T19:51:22.190Z,0.40
2018-02-04T19:53:49.737Z,0.40
2018-02-04T19:56:17.289Z,0.40
2018-02-04T19:58:45.266Z,0.40
2018-02-04T20:01:13.020Z,0.40
2018-02-04T20:03:40.636Z,0.30
2018-02-04T20:06:08.638Z,0.30
2018-02-04T20:08:36.189Z,0.30
2018-02-04T20:11:03.774Z,0.40
2018-02-04T20:13:31.335Z,0.30
2018-02-04T20:15:58.923Z,0.40
2018-02-04T20:18:26.681Z,0.30
2018-02-04T20:20:54.247Z,0.30
2018-02-04T20:23:22.589Z,0.20
2018-02-04T20:25:50.144Z,0.20
2018-02-04T20:28:17.795Z,0.30
2018-02-04T20:30:45.358Z,0.20
2018-02-04T20:33:22.664Z,0.20
2018-02-04T20:35:53.088Z,0.20
2018-02-04T20:38:20.672Z,0.20
2018-02-04T20:40:49.736Z,0.00
2018-02-04T20:43:17.288Z,0.00
2018-02-04T20:45:45.380Z,0.00
2018-02-04T20:48:13.007Z,0.00
2018-02-04T20:50:40.548Z,-0.10
2018-02-04T20:53:08.197Z,-0.10
2018-02-04T20:55:36.508Z,-0.20
2018-02-04T20:58:04.102Z,-0.20
2018-02-04T21:00:33.323Z,-0.30
2018-02-04T21:03:01.560Z,-0.30
2018-02-04T21:05:29.208Z,-0.30
2018-02-04T21:07:56.758Z,-0.20
2018-02-04T21:10:24.341Z,-0.20
2018-02-04T21:12:51.990Z,-0.10
2018-02-04T21:15:20.317Z,-0.10
2018-02-04T21:17:48.029Z,0.00
2018-02-04T21:20:15.585Z,0.00
2018-02-04T21:22:43.173Z,0.00
2018-02-04T21:25:10.712Z,0.00
2018-02-04T21:27:38.565Z,0.10
2018-02-04T21:30:06.098Z,0.20
2018-02-04T21:32:33.661Z,0.20
2018-02-04T21:35:02.026Z,0.40
2018-02-04T21:37:29.572Z,0.40
2018-02-04T21:39:58.573Z,0.50
2018-02-04T21:42:26.122Z,0.60
2018-02-04T21:44:53.678Z,0.60
2018-02-04T21:47:21.269Z,0.70
2018-02-04T21:49:49.584Z,0.80
2018-02-04T21:52:17.165Z,0.80
2018-02-04T21:54:45.518Z,1.00
2018-02-04T21:57:13.065Z,0.90
2018-02-04T21:59:40.638Z,1.00
2018-02-04T22:02:08.892Z,1.10
2018-02-04T22:04:36.887Z,1.10
2018-02-04T22:07:04.435Z,1.10
2018-02-04T22:09:31.997Z,1.00
2018-02-04T22:11:59.577Z,1.00
2018-02-04T22:14:27.118Z,1.00
2018-02-04T22:16:54.789Z,1.00
2018-02-04T22:19:22.336Z,1.00
2018-02-04T22:21:50.179Z,1.00
2018-02-04T22:24:17.734Z,1.10
2018-02-04T22:26:45.276Z,1.00
2018-02-04T22:29:13.622Z,0.90
2018-02-04T22:31:41.182Z,0.90
2018-02-04T22:34:08.828Z,0.90
2018-02-04T22:36:36.358Z,0.80
2018-02-04T22:39:03.888Z,0.70
2018-02-04T22:41:32.256Z,0.60
2018-02-04T22:44:00.625Z,0.50
2018-02-04T22:46:28.350Z,0.50
2018-02-04T22:48:55.893Z,0.60
2018-02-04T22:51:23.427Z,0.60
2018-02-04T22:53:51.041Z,0.60
2018-02-04T22:56:18.656Z,0.50
2018-02-04T22:58:47.504Z,0.40
2018-02-04T23:01:15.051Z,0.40
2018-02-04T23:03:42.597Z,0.40
2018-02-04T23:06:10.197Z,0.30
2018-02-04T23:08:37.731Z,0.20
2018-02-04T23:11:05.332Z,0.10
2018-02-04T23:13:32.960Z,0.10
2018-02-04T23:16:00.503Z,0.00
2018-02-04T23:18:28.072Z,0.00
2018-02-04T23:20:55.608Z,0.00
2018-02-04T23:23:23.203Z,0.00
2018-02-04T23:25:50.751Z,0.00
2018-02-04T23:28:18.599Z,0.00
2018-02-04T23:30:46.343Z,0.00
2018-02-04T23:33:14.645Z,0.10
2018-02-04T23:35:42.221Z,0.10
2018-02-04T23:38:09.756Z,0.10
2018-02-04T23:40:37.336Z,0.10
2018-02-04T23:43:04.869Z,0.20
2018-02-04T23:45:32.409Z,0.20
2018-02-04T23:47:59.998Z,0.30
2018-02-04T23:50:27.551Z,0.30
2018-02-04T23:52:55.128Z,0.40
2018-02-04T23:55:22.778Z,0.50
2018-02-04T23:57:50.320Z,0.50
